sensor_id;sensor_type;location;lat;lon;timestamp;temperature;humidity
37300;DHT22;23184;51.902;12.836;2022-09-09T00:04:37;13.90;99.90
37300;DHT22;23184;51.902;12.836;2022-09-09T00:07:20;13.90;99.90
37300;DHT22;23184;51.902;12.836;2022-09-09T00:12:34;13.90;99.90
37300;DHT22;23184;51.902;12.836;2022-09-09T00:15:05;13.90;99.90
37300;DHT22;23184;51.902;12.836;2022-09-09T00:17:37;13.90;99.90
37300;DHT22;23184;51.902;12.836;2022-09-09T00:22:52;13.80;99.90
37300;DHT22;23184;51.902;12.836;2022-09-09T00:25:29;13.80;99.90
37300;DHT22;23184;51.902;12.836;2022-09-09T00:27:59;13.70;99.90
37300;DHT22;23184;51.902;12.836;2022-09-09T00:30:29;13.60;99.90
37300;DHT22;23184;51.902;12.836;2022-09-09T00:33:01;13.60;99.90
37300;DHT22;23184;51.902;12.836;2022-09-09T00:35:40;13.60;99.90
37300;DHT22;23184;51.902;12.836;2022-09-09T00:38:15;13.60;99.90
37300;DHT22;23184;51.902;12.836;2022-09-09T00:40:52;13.60;99.90
37300;DHT22;23184;51.902;12.836;2022-09-09T00:43:32;13.60;99.90
37300;DHT22;23184;51.902;12.836;2022-09-09T00:51:15;13.50;99.90
37300;DHT22;23184;51.902;12.836;2022-09-09T00:56:11;13.50;99.90
37300;DHT22;23184;51.902;12.836;2022-09-09T00:58:38;13.50;99.90
37300;DHT22;23184;51.902;12.836;2022-09-09T01:01:10;13.60;99.90
37300;DHT22;23184;51.902;12.836;2022-09-09T01:06:16;13.60;99.90
37300;DHT22;23184;51.902;12.836;2022-09-09T01:12:35;13.60;99.90
37300;DHT22;23184;51.902;12.836;2022-09-09T01:15:08;13.60;99.90
37300;DHT22;23184;51.902;12.836;2022-09-09T01:18:04;13.60;99.90
37300;DHT22;23184;51.902;12.836;2022-09-09T01:26:10;13.60;99.90
37300;DHT22;23184;51.902;12.836;2022-09-09T01:28:39;13.60;99.90
37300;DHT22;23184;51.902;12.836;2022-09-09T01:31:06;13.60;99.90
37300;DHT22;23184;51.902;12.836;2022-09-09T01:33:34;13.60;99.90
37300;DHT22;23184;51.902;12.836;2022-09-09T01:38:48;13.60;99.90
37300;DHT22;23184;51.902;12.836;2022-09-09T01:41:14;13.60;99.90
37300;DHT22;23184;51.902;12.836;2022-09-09T01:43:42;13.60;99.90
37300;DHT22;23184;51.902;12.836;2022-09-09T01:46:09;13.50;99.90
37300;DHT22;23184;51.902;12.836;2022-09-09T01:48:36;13.50;99.90
37300;DHT22;23184;51.902;12.836;2022-09-09T01:51:01;13.50;99.90
37300;DHT22;23184;51.902;12.836;2022-09-09T01:53:27;13.50;99.90
37300;DHT22;23184;51.902;12.836;2022-09-09T01:56:17;13.50;99.90
37300;DHT22;23184;51.902;12.836;2022-09-09T02:03:56;13.50;99.90
37300;DHT22;23184;51.902;12.836;2022-09-09T02:06:34;13.40;99.90
37300;DHT22;23184;51.902;12.836;2022-09-09T02:09:03;13.40;99.90
37300;DHT22;23184;51.902;12.836;2022-09-09T02:11:29;13.40;99.90
37300;DHT22;23184;51.902;12.836;2022-09-09T02:14:01;13.30;99.90
37300;DHT22;23184;51.902;12.836;2022-09-09T02:16:54;13.30;99.90
37300;DHT22;23184;51.902;12.836;2022-09-09T02:19:29;13.20;99.90
37300;DHT22;23184;51.902;12.836;2022-09-09T02:21:59;13.20;99.90
37300;DHT22;23184;51.902;12.836;2022-09-09T02:24:26;13.20;99.90
37300;DHT22;23184;51.902;12.836;2022-09-09T02:26:53;13.10;99.90
37300;DHT22;23184;51.902;12.836;2022-09-09T02:29:31;13.20;99.90
37300;DHT22;23184;51.902;12.836;2022-09-09T02:32:01;13.20;99.90
37300;DHT22;23184;51.902;12.836;2022-09-09T02:34:30;13.20;99.90
37300;DHT22;23184;51.902;12.836;2022-09-09T02:36:57;13.20;99.90
37300;DHT22;23184;51.902;12.836;2022-09-09T02:39:24;13.30;99.90
37300;DHT22;23184;51.902;12.836;2022-09-09T02:41:50;13.30;99.90
37300;DHT22;23184;51.902;12.836;2022-09-09T02:44:18;13.40;99.90
37300;DHT22;23184;51.902;12.836;2022-09-09T02:52:08;13.40;99.90
37300;DHT22;23184;51.902;12.836;2022-09-09T02:54:38;13.40;99.90
37300;DHT22;23184;51.902;12.836;2022-09-09T02:57:22;13.40;99.90
37300;DHT22;23184;51.902;12.836;2022-09-09T02:59:49;13.40;99.90
37300;DHT22;23184;51.902;12.836;2022-09-09T03:02:15;13.40;99.90
37300;DHT22;23184;51.902;12.836;2022-09-09T03:04:41;13.40;99.90
37300;DHT22;23184;51.902;12.836;2022-09-09T03:07:10;13.30;99.90
37300;DHT22;23184;51.902;12.836;2022-09-09T03:09:35;13.30;99.90
37300;DHT22;23184;51.902;12.836;2022-09-09T03:12:01;13.30;99.90
37300;DHT22;23184;51.902;12.836;2022-09-09T03:14:27;13.30;99.90
37300;DHT22;23184;51.902;12.836;2022-09-09T03:16:53;13.30;99.90
37300;DHT22;23184;51.902;12.836;2022-09-09T03:19:20;13.30;99.90
37300;DHT22;23184;51.902;12.836;2022-09-09T03:21:46;13.40;99.90
37300;DHT22;23184;51.902;12.836;2022-09-09T03:24:13;13.40;99.90
37300;DHT22;23184;51.902;12.836;2022-09-09T03:26:39;13.30;99.90
37300;DHT22;23184;51.902;12.836;2022-09-09T03:29:06;13.30;99.90
37300;DHT22;23184;51.902;12.836;2022-09-09T03:31:33;13.30;99.90
37300;DHT22;23184;51.902;12.836;2022-09-09T03:33:59;13.20;99.90
37300;DHT22;23184;51.902;12.836;2022-09-09T03:36:27;13.20;99.90
37300;DHT22;23184;51.902;12.836;2022-09-09T03:38:53;13.20;99.90
37300;DHT22;23184;51.902;12.836;2022-09-09T03:41:23;13.20;99.90
37300;DHT22;23184;51.902;12.836;2022-09-09T03:43:52;13.20;99.90
37300;DHT22;23184;51.902;12.836;2022-09-09T03:46:19;13.20;99.90
37300;DHT22;23184;51.902;12.836;2022-09-09T03:48:44;13.20;99.90
37300;DHT22;23184;51.902;12.836;2022-09-09T03:51:10;13.20;99.90
37300;DHT22;23184;51.902;12.836;2022-09-09T03:53:36;13.20;99.90
37300;DHT22;23184;51.902;12.836;2022-09-09T03:56:03;13.20;99.90
37300;DHT22;23184;51.902;12.836;2022-09-09T03:58:29;13.20;99.90
37300;DHT22;23184;51.902;12.836;2022-09-09T04:00:55;13.10;99.90
37300;DHT22;23184;51.902;12.836;2022-09-09T04:03:22;13.20;99.90
37300;DHT22;23184;51.902;12.836;2022-09-09T04:05:49;13.10;99.90
37300;DHT22;23184;51.902;12.836;2022-09-09T04:08:14;13.10;99.90
37300;DHT22;23184;51.902;12.836;2022-09-09T04:10:40;13.10;99.90
37300;DHT22;23184;51.902;12.836;2022-09-09T04:13:06;13.10;99.90
37300;DHT22;23184;51.902;12.836;2022-09-09T04:15:32;13.10;99.90
37300;DHT22;23184;51.902;12.836;2022-09-09T04:17:57;13.10;99.90
37300;DHT22;23184;51.902;12.836;2022-09-09T04:20:23;13.10;99.90
37300;DHT22;23184;51.902;12.836;2022-09-09T04:22:48;13.10;99.90
37300;DHT22;23184;51.902;12.836;2022-09-09T04:25:14;13.10;99.90
37300;DHT22;23184;51.902;12.836;2022-09-09T04:27:39;13.00;99.90
37300;DHT22;23184;51.902;12.836;2022-09-09T04:30:06;13.00;99.90
37300;DHT22;23184;51.902;12.836;2022-09-09T04:32:33;13.00;99.90
37300;DHT22;23184;51.902;12.836;2022-09-09T04:34:59;12.90;99.90
37300;DHT22;23184;51.902;12.836;2022-09-09T04:37:24;12.90;99.90
37300;DHT22;23184;51.902;12.836;2022-09-09T04:39:50;12.90;99.90
37300;DHT22;23184;51.902;12.836;2022-09-09T04:42:16;12.90;99.90
37300;DHT22;23184;51.902;12.836;2022-09-09T04:44:43;12.80;99.90
37300;DHT22;23184;51.902;12.836;2022-09-09T04:47:09;12.80;99.90
37300;DHT22;23184;51.902;12.836;2022-09-09T04:49:35;12.80;99.90
37300;DHT22;23184;51.902;12.836;2022-09-09T04:52:01;12.80;99.90
37300;DHT22;23184;51.902;12.836;2022-09-09T04:54:26;12.80;99.90
37300;DHT22;23184;51.902;12.836;2022-09-09T04:56:52;12.80;99.90
37300;DHT22;23184;51.902;12.836;2022-09-09T04:59:18;12.80;99.90
37300;DHT22;23184;51.902;12.836;2022-09-09T05:01:43;12.90;99.90
37300;DHT22;23184;51.902;12.836;2022-09-09T05:04:09;12.90;99.90
37300;DHT22;23184;51.902;12.836;2022-09-09T05:06:34;12.90;99.90
37300;DHT22;23184;51.902;12.836;2022-09-09T05:09:01;13.00;99.90
37300;DHT22;23184;51.902;12.836;2022-09-09T05:11:29;13.00;99.90
37300;DHT22;23184;51.902;12.836;2022-09-09T05:13:55;13.10;99.90
37300;DHT22;23184;51.902;12.836;2022-09-09T05:16:22;13.10;99.90
37300;DHT22;23184;51.902;12.836;2022-09-09T05:18:48;13.20;99.90
37300;DHT22;23184;51.902;12.836;2022-09-09T05:21:16;13.30;99.90
37300;DHT22;23184;51.902;12.836;2022-09-09T05:23:42;13.40;99.90
37300;DHT22;23184;51.902;12.836;2022-09-09T05:26:12;13.50;99.90
37300;DHT22;23184;51.902;12.836;2022-09-09T05:28:39;13.50;99.90
37300;DHT22;23184;51.902;12.836;2022-09-09T05:31:06;13.60;99.90
37300;DHT22;23184;51.902;12.836;2022-09-09T05:33:38;13.60;99.90
37300;DHT22;23184;51.902;12.836;2022-09-09T05:36:07;13.60;99.90
37300;DHT22;23184;51.902;12.836;2022-09-09T05:38:34;13.70;99.90
37300;DHT22;23184;51.902;12.836;2022-09-09T05:41:01;13.70;99.90
37300;DHT22;23184;51.902;12.836;2022-09-09T05:43:28;13.90;99.90
37300;DHT22;23184;51.902;12.836;2022-09-09T05:46:05;13.90;99.90
37300;DHT22;23184;51.902;12.836;2022-09-09T05:48:33;14.10;99.90
37300;DHT22;23184;51.902;12.836;2022-09-09T05:51:00;14.30;99.90
37300;DHT22;23184;51.902;12.836;2022-09-09T05:53:26;14.30;99.90
37300;DHT22;23184;51.902;12.836;2022-09-09T05:56:06;14.40;99.90
37300;DHT22;23184;51.902;12.836;2022-09-09T05:58:33;14.40;99.90
37300;DHT22;23184;51.902;12.836;2022-09-09T06:01:14;14.50;99.90
37300;DHT22;23184;51.902;12.836;2022-09-09T06:03:41;14.60;99.90
37300;DHT22;23184;51.902;12.836;2022-09-09T06:06:09;14.50;99.90
37300;DHT22;23184;51.902;12.836;2022-09-09T06:08:37;14.60;99.90
37300;DHT22;23184;51.902;12.836;2022-09-09T06:11:13;14.60;99.90
37300;DHT22;23184;51.902;12.836;2022-09-09T06:13:39;14.70;99.90
37300;DHT22;23184;51.902;12.836;2022-09-09T06:16:09;14.80;99.90
37300;DHT22;23184;51.902;12.836;2022-09-09T06:18:36;14.80;99.90
37300;DHT22;23184;51.902;12.836;2022-09-09T06:21:04;15.00;99.90
37300;DHT22;23184;51.902;12.836;2022-09-09T06:23:31;15.10;99.90
37300;DHT22;23184;51.902;12.836;2022-09-09T06:26:07;15.10;99.90
37300;DHT22;23184;51.902;12.836;2022-09-09T06:28:34;15.20;99.90
37300;DHT22;23184;51.902;12.836;2022-09-09T06:31:03;15.20;99.90
37300;DHT22;23184;51.902;12.836;2022-09-09T06:33:41;15.20;99.90
37300;DHT22;23184;51.902;12.836;2022-09-09T06:36:11;15.30;99.90
37300;DHT22;23184;51.902;12.836;2022-09-09T06:38:37;15.50;99.90
37300;DHT22;23184;51.902;12.836;2022-09-09T06:41:03;15.40;99.90
37300;DHT22;23184;51.902;12.836;2022-09-09T06:43:30;15.40;99.90
37300;DHT22;23184;51.902;12.836;2022-09-09T06:45:58;15.50;99.90
37300;DHT22;23184;51.902;12.836;2022-09-09T06:48:24;15.60;99.90
37300;DHT22;23184;51.902;12.836;2022-09-09T06:51:14;15.50;99.90
37300;DHT22;23184;51.902;12.836;2022-09-09T06:53:38;15.70;99.90
37300;DHT22;23184;51.902;12.836;2022-09-09T06:58:45;15.80;99.90
37300;DHT22;23184;51.902;12.836;2022-09-09T07:01:13;16.00;99.90
37300;DHT22;23184;51.902;12.836;2022-09-09T07:03:39;16.20;99.90
37300;DHT22;23184;51.902;12.836;2022-09-09T07:06:06;16.20;99.90
37300;DHT22;23184;51.902;12.836;2022-09-09T07:08:33;16.20;99.90
37300;DHT22;23184;51.902;12.836;2022-09-09T07:11:06;16.30;99.90
37300;DHT22;23184;51.902;12.836;2022-09-09T07:13:32;16.30;99.90
37300;DHT22;23184;51.902;12.836;2022-09-09T07:16:14;16.30;99.90
37300;DHT22;23184;51.902;12.836;2022-09-09T07:18:40;16.30;99.90
37300;DHT22;23184;51.902;12.836;2022-09-09T07:21:08;16.30;99.90
37300;DHT22;23184;51.902;12.836;2022-09-09T07:23:34;16.40;99.90
37300;DHT22;23184;51.902;12.836;2022-09-09T07:26:02;16.40;99.90
37300;DHT22;23184;51.902;12.836;2022-09-09T07:28:27;16.40;99.90
37300;DHT22;23184;51.902;12.836;2022-09-09T07:30:58;16.50;99.90
37300;DHT22;23184;51.902;12.836;2022-09-09T07:33:25;16.40;99.90
37300;DHT22;23184;51.902;12.836;2022-09-09T07:35:51;16.30;99.90
37300;DHT22;23184;51.902;12.836;2022-09-09T07:38:17;16.40;99.90
37300;DHT22;23184;51.902;12.836;2022-09-09T07:40:44;16.40;99.90
37300;DHT22;23184;51.902;12.836;2022-09-09T07:43:09;16.50;99.90
37300;DHT22;23184;51.902;12.836;2022-09-09T07:45:36;16.60;99.90
37300;DHT22;23184;51.902;12.836;2022-09-09T07:48:02;16.70;99.90
37300;DHT22;23184;51.902;12.836;2022-09-09T07:50:28;16.80;99.90
37300;DHT22;23184;51.902;12.836;2022-09-09T07:52:54;17.00;99.90
37300;DHT22;23184;51.902;12.836;2022-09-09T07:55:21;17.30;99.90
37300;DHT22;23184;51.902;12.836;2022-09-09T07:57:47;17.30;99.90
37300;DHT22;23184;51.902;12.836;2022-09-09T08:00:13;17.40;99.90
37300;DHT22;23184;51.902;12.836;2022-09-09T08:02:40;17.30;99.90
37300;DHT22;23184;51.902;12.836;2022-09-09T08:05:06;17.40;99.90
37300;DHT22;23184;51.902;12.836;2022-09-09T08:07:31;17.80;99.90
37300;DHT22;23184;51.902;12.836;2022-09-09T08:09:57;18.80;99.90
37300;DHT22;23184;51.902;12.836;2022-09-09T08:12:22;19.70;99.90
37300;DHT22;23184;51.902;12.836;2022-09-09T08:14:48;20.30;99.90
37300;DHT22;23184;51.902;12.836;2022-09-09T08:17:14;20.60;99.90
37300;DHT22;23184;51.902;12.836;2022-09-09T08:19:39;21.10;99.90
37300;DHT22;23184;51.902;12.836;2022-09-09T08:22:05;21.20;99.90
37300;DHT22;23184;51.902;12.836;2022-09-09T08:24:30;21.40;99.90
37300;DHT22;23184;51.902;12.836;2022-09-09T08:26:56;20.90;99.90
37300;DHT22;23184;51.902;12.836;2022-09-09T08:29:22;21.10;99.90
37300;DHT22;23184;51.902;12.836;2022-09-09T08:31:50;20.90;99.90
37300;DHT22;23184;51.902;12.836;2022-09-09T08:34:16;20.90;99.90
37300;DHT22;23184;51.902;12.836;2022-09-09T08:36:45;21.10;99.90
37300;DHT22;23184;51.902;12.836;2022-09-09T08:39:13;21.40;99.90
37300;DHT22;23184;51.902;12.836;2022-09-09T08:42:17;20.20;99.90
37300;DHT22;23184;51.902;12.836;2022-09-09T08:50:30;19.20;99.90
37300;DHT22;23184;51.902;12.836;2022-09-09T08:58:19;21.00;99.90
37300;DHT22;23184;51.902;12.836;2022-09-09T09:09:46;19.90;99.90
37300;DHT22;23184;51.902;12.836;2022-09-09T09:12:21;20.20;99.90
37300;DHT22;23184;51.902;12.836;2022-09-09T09:14:48;21.30;99.90
37300;DHT22;23184;51.902;12.836;2022-09-09T09:17:17;21.90;99.90
37300;DHT22;23184;51.902;12.836;2022-09-09T09:19:44;22.80;99.90
37300;DHT22;23184;51.902;12.836;2022-09-09T09:22:21;22.00;99.90
37300;DHT22;23184;51.902;12.836;2022-09-09T09:24:53;22.10;99.90
37300;DHT22;23184;51.902;12.836;2022-09-09T09:27:43;22.50;99.90
37300;DHT22;23184;51.902;12.836;2022-09-09T09:30:17;22.40;99.90
37300;DHT22;23184;51.902;12.836;2022-09-09T09:32:51;21.90;99.90
37300;DHT22;23184;51.902;12.836;2022-09-09T09:35:17;21.70;99.90
37300;DHT22;23184;51.902;12.836;2022-09-09T09:37:44;22.00;99.90
37300;DHT22;23184;51.902;12.836;2022-09-09T09:40:21;22.20;99.90
37300;DHT22;23184;51.902;12.836;2022-09-09T09:43:02;22.40;99.90
37300;DHT22;23184;51.902;12.836;2022-09-09T09:45:41;23.10;99.90
37300;DHT22;23184;51.902;12.836;2022-09-09T09:48:11;23.80;99.90
37300;DHT22;23184;51.902;12.836;2022-09-09T09:50:48;24.80;99.90
37300;DHT22;23184;51.902;12.836;2022-09-09T09:53:33;24.60;99.90
37300;DHT22;23184;51.902;12.836;2022-09-09T09:56:01;23.90;99.90
37300;DHT22;23184;51.902;12.836;2022-09-09T09:58:31;23.60;99.90
37300;DHT22;23184;51.902;12.836;2022-09-09T10:00:59;23.80;99.90
37300;DHT22;23184;51.902;12.836;2022-09-09T10:03:26;24.60;99.90
37300;DHT22;23184;51.902;12.836;2022-09-09T10:05:52;25.50;99.90
37300;DHT22;23184;51.902;12.836;2022-09-09T10:08:19;25.70;99.90
37300;DHT22;23184;51.902;12.836;2022-09-09T10:13:53;24.20;99.90
37300;DHT22;23184;51.902;12.836;2022-09-09T10:19:32;25.30;99.90
37300;DHT22;23184;51.902;12.836;2022-09-09T10:22:17;26.10;99.90
37300;DHT22;23184;51.902;12.836;2022-09-09T10:30:19;25.50;99.90
37300;DHT22;23184;51.902;12.836;2022-09-09T10:32:55;24.40;99.90
37300;DHT22;23184;51.902;12.836;2022-09-09T10:35:39;24.90;99.90
37300;DHT22;23184;51.902;12.836;2022-09-09T10:44:14;24.10;99.90
37300;DHT22;23184;51.902;12.836;2022-09-09T10:46:44;24.90;99.90
37300;DHT22;23184;51.902;12.836;2022-09-09T10:55:18;27.70;99.90
37300;DHT22;23184;51.902;12.836;2022-09-09T10:57:52;28.30;99.90
37300;DHT22;23184;51.902;12.836;2022-09-09T11:06:06;25.70;99.90
37300;DHT22;23184;51.902;12.836;2022-09-09T11:08:34;25.50;99.90
37300;DHT22;23184;51.902;12.836;2022-09-09T11:11:04;24.80;99.90
37300;DHT22;23184;51.902;12.836;2022-09-09T11:18:48;24.00;99.90
37300;DHT22;23184;51.902;12.836;2022-09-09T11:21:22;24.10;99.90
37300;DHT22;23184;51.902;12.836;2022-09-09T11:23:54;24.30;99.90
37300;DHT22;23184;51.902;12.836;2022-09-09T11:26:44;23.80;99.90
37300;DHT22;23184;51.902;12.836;2022-09-09T11:35:21;24.90;99.90
37300;DHT22;23184;51.902;12.836;2022-09-09T11:40:23;24.30;99.90
37300;DHT22;23184;51.902;12.836;2022-09-09T11:42:49;23.50;99.90
37300;DHT22;23184;51.902;12.836;2022-09-09T11:45:27;23.10;99.90
37300;DHT22;23184;51.902;12.836;2022-09-09T11:47:57;23.40;99.90
37300;DHT22;23184;51.902;12.836;2022-09-09T11:50:27;23.80;99.90
37300;DHT22;23184;51.902;12.836;2022-09-09T11:55:39;25.20;99.90
37300;DHT22;23184;51.902;12.836;2022-09-09T12:00:41;25.10;99.90
37300;DHT22;23184;51.902;12.836;2022-09-09T12:03:41;25.00;99.90
37300;DHT22;23184;51.902;12.836;2022-09-09T12:08:37;25.20;99.90
37300;DHT22;23184;51.902;12.836;2022-09-09T12:11:06;24.30;99.90
37300;DHT22;23184;51.902;12.836;2022-09-09T12:13:32;24.00;99.90
37300;DHT22;23184;51.902;12.836;2022-09-09T12:15:59;23.90;99.90
37300;DHT22;23184;51.902;12.836;2022-09-09T12:21:07;24.30;99.90
37300;DHT22;23184;51.902;12.836;2022-09-09T12:23:43;23.70;99.90
37300;DHT22;23184;51.902;12.836;2022-09-09T12:34:30;23.60;99.90
37300;DHT22;23184;51.902;12.836;2022-09-09T12:37:02;23.10;99.90
37300;DHT22;23184;51.902;12.836;2022-09-09T12:39:51;22.90;99.90
37300;DHT22;23184;51.902;12.836;2022-09-09T12:42:20;22.70;99.90
37300;DHT22;23184;51.902;12.836;2022-09-09T12:44:53;22.80;99.90
37300;DHT22;23184;51.902;12.836;2022-09-09T12:47:22;23.50;99.90
37300;DHT22;23184;51.902;12.836;2022-09-09T12:49:50;23.60;99.90
37300;DHT22;23184;51.902;12.836;2022-09-09T12:52:38;22.90;99.90
37300;DHT22;23184;51.902;12.836;2022-09-09T12:55:05;22.50;99.90
37300;DHT22;23184;51.902;12.836;2022-09-09T12:57:35;22.20;99.90
37300;DHT22;23184;51.902;12.836;2022-09-09T13:00:07;22.10;99.90
37300;DHT22;23184;51.902;12.836;2022-09-09T13:02:35;22.00;99.90
37300;DHT22;23184;51.902;12.836;2022-09-09T13:05:15;21.90;99.90
37300;DHT22;23184;51.902;12.836;2022-09-09T13:07:42;21.80;99.90
37300;DHT22;23184;51.902;12.836;2022-09-09T13:10:11;21.70;99.90
37300;DHT22;23184;51.902;12.836;2022-09-09T13:12:37;21.60;99.90
37300;DHT22;23184;51.902;12.836;2022-09-09T13:15:03;21.40;99.90
37300;DHT22;23184;51.902;12.836;2022-09-09T13:17:28;21.20;99.90
37300;DHT22;23184;51.902;12.836;2022-09-09T13:19:54;20.10;99.90
37300;DHT22;23184;51.902;12.836;2022-09-09T13:22:31;19.10;99.90
37300;DHT22;23184;51.902;12.836;2022-09-09T13:25:00;18.80;99.90
37300;DHT22;23184;51.902;12.836;2022-09-09T13:27:33;18.50;99.90
37300;DHT22;23184;51.902;12.836;2022-09-09T13:29:59;19.30;99.90
37300;DHT22;23184;51.902;12.836;2022-09-09T13:32:26;20.40;99.90
37300;DHT22;23184;51.902;12.836;2022-09-09T13:34:57;21.70;99.90
37300;DHT22;23184;51.902;12.836;2022-09-09T13:37:36;23.70;99.90
37300;DHT22;23184;51.902;12.836;2022-09-09T13:40:05;25.40;99.90
37300;DHT22;23184;51.902;12.836;2022-09-09T13:42:33;27.10;99.90
37300;DHT22;23184;51.902;12.836;2022-09-09T13:45:01;28.50;99.90
37300;DHT22;23184;51.902;12.836;2022-09-09T13:47:31;29.40;99.90
37300;DHT22;23184;51.902;12.836;2022-09-09T13:49:57;28.70;99.90
37300;DHT22;23184;51.902;12.836;2022-09-09T13:52:23;27.60;99.90
37300;DHT22;23184;51.902;12.836;2022-09-09T13:54:50;26.60;99.90
37300;DHT22;23184;51.902;12.836;2022-09-09T13:57:21;25.70;99.90
37300;DHT22;23184;51.902;12.836;2022-09-09T13:59:48;24.80;99.90
37300;DHT22;23184;51.902;12.836;2022-09-09T14:02:15;24.20;99.90
37300;DHT22;23184;51.902;12.836;2022-09-09T14:04:42;23.70;99.90
37300;DHT22;23184;51.902;12.836;2022-09-09T14:07:11;23.20;99.90
37300;DHT22;23184;51.902;12.836;2022-09-09T14:09:38;23.00;99.90
37300;DHT22;23184;51.902;12.836;2022-09-09T14:12:04;22.80;99.90
37300;DHT22;23184;51.902;12.836;2022-09-09T14:14:30;22.80;99.90
37300;DHT22;23184;51.902;12.836;2022-09-09T14:16:55;24.00;99.90
37300;DHT22;23184;51.902;12.836;2022-09-09T14:19:21;25.80;99.90
37300;DHT22;23184;51.902;12.836;2022-09-09T14:21:46;27.50;99.90
37300;DHT22;23184;51.902;12.836;2022-09-09T14:24:11;28.30;99.90
37300;DHT22;23184;51.902;12.836;2022-09-09T14:26:37;27.80;99.90
37300;DHT22;23184;51.902;12.836;2022-09-09T14:29:03;27.40;99.90
37300;DHT22;23184;51.902;12.836;2022-09-09T14:31:29;27.10;99.90
37300;DHT22;23184;51.902;12.836;2022-09-09T14:33:54;26.80;99.90
37300;DHT22;23184;51.902;12.836;2022-09-09T14:36:20;27.70;99.90
37300;DHT22;23184;51.902;12.836;2022-09-09T14:38:45;28.60;99.90
37300;DHT22;23184;51.902;12.836;2022-09-09T14:41:13;29.50;99.90
37300;DHT22;23184;51.902;12.836;2022-09-09T14:43:39;30.20;99.90
37300;DHT22;23184;51.902;12.836;2022-09-09T14:46:10;28.70;99.90
37300;DHT22;23184;51.902;12.836;2022-09-09T14:48:36;27.90;99.90
37300;DHT22;23184;51.902;12.836;2022-09-09T14:51:13;26.90;99.90
37300;DHT22;23184;51.902;12.836;2022-09-09T14:53:41;25.40;99.90
37300;DHT22;23184;51.902;12.836;2022-09-09T14:56:13;25.90;99.90
37300;DHT22;23184;51.902;12.836;2022-09-09T14:58:38;26.80;99.90
37300;DHT22;23184;51.902;12.836;2022-09-09T15:01:16;27.40;99.90
37300;DHT22;23184;51.902;12.836;2022-09-09T15:03:43;28.00;99.90
37300;DHT22;23184;51.902;12.836;2022-09-09T15:06:14;27.70;99.90
37300;DHT22;23184;51.902;12.836;2022-09-09T15:08:44;28.10;99.90
37300;DHT22;23184;51.902;12.836;2022-09-09T15:11:11;25.90;99.90
37300;DHT22;23184;51.902;12.836;2022-09-09T15:13:38;25.70;99.90
37300;DHT22;23184;51.902;12.836;2022-09-09T15:18:31;25.00;99.90
37300;DHT22;23184;51.902;12.836;2022-09-09T15:20:58;24.50;99.90
37300;DHT22;23184;51.902;12.836;2022-09-09T15:23:25;24.20;99.90
37300;DHT22;23184;51.902;12.836;2022-09-09T15:25:54;23.80;99.90
37300;DHT22;23184;51.902;12.836;2022-09-09T15:28:21;23.40;99.90
37300;DHT22;23184;51.902;12.836;2022-09-09T15:30:51;22.80;99.90
37300;DHT22;23184;51.902;12.836;2022-09-09T15:33:17;22.20;99.90
37300;DHT22;23184;51.902;12.836;2022-09-09T15:35:43;21.40;99.90
37300;DHT22;23184;51.902;12.836;2022-09-09T15:38:09;20.70;99.90
37300;DHT22;23184;51.902;12.836;2022-09-09T15:40:34;19.10;99.90
37300;DHT22;23184;51.902;12.836;2022-09-09T15:43:00;18.40;99.90
37300;DHT22;23184;51.902;12.836;2022-09-09T15:45:26;17.80;99.90
37300;DHT22;23184;51.902;12.836;2022-09-09T15:47:52;17.10;99.90
37300;DHT22;23184;51.902;12.836;2022-09-09T15:50:17;17.00;99.90
37300;DHT22;23184;51.902;12.836;2022-09-09T15:52:43;17.20;99.90
37300;DHT22;23184;51.902;12.836;2022-09-09T15:55:08;17.60;99.90
37300;DHT22;23184;51.902;12.836;2022-09-09T15:57:34;17.90;99.90
37300;DHT22;23184;51.902;12.836;2022-09-09T16:00:00;18.20;99.90
37300;DHT22;23184;51.902;12.836;2022-09-09T16:02:26;18.50;99.90
37300;DHT22;23184;51.902;12.836;2022-09-09T16:04:51;18.80;99.90
37300;DHT22;23184;51.902;12.836;2022-09-09T16:07:17;18.90;99.90
37300;DHT22;23184;51.902;12.836;2022-09-09T16:09:43;19.20;99.90
37300;DHT22;23184;51.902;12.836;2022-09-09T16:12:09;19.20;99.90
37300;DHT22;23184;51.902;12.836;2022-09-09T16:14:38;19.10;99.90
37300;DHT22;23184;51.902;12.836;2022-09-09T16:17:05;19.00;99.90
37300;DHT22;23184;51.902;12.836;2022-09-09T16:19:31;19.00;99.90
37300;DHT22;23184;51.902;12.836;2022-09-09T16:21:57;18.90;99.90
37300;DHT22;23184;51.902;12.836;2022-09-09T16:24:23;18.70;99.90
37300;DHT22;23184;51.902;12.836;2022-09-09T16:26:51;18.70;99.90
37300;DHT22;23184;51.902;12.836;2022-09-09T16:29:18;18.50;99.90
37300;DHT22;23184;51.902;12.836;2022-09-09T16:31:45;18.40;99.90
37300;DHT22;23184;51.902;12.836;2022-09-09T16:34:12;18.30;99.90
37300;DHT22;23184;51.902;12.836;2022-09-09T16:36:39;18.10;99.90
37300;DHT22;23184;51.902;12.836;2022-09-09T16:39:11;18.00;99.90
37300;DHT22;23184;51.902;12.836;2022-09-09T16:41:37;17.80;99.90
37300;DHT22;23184;51.902;12.836;2022-09-09T16:44:05;17.70;99.90
37300;DHT22;23184;51.902;12.836;2022-09-09T16:46:33;17.50;99.90
37300;DHT22;23184;51.902;12.836;2022-09-09T16:49:00;17.40;99.90
37300;DHT22;23184;51.902;12.836;2022-09-09T16:51:31;17.30;99.90
37300;DHT22;23184;51.902;12.836;2022-09-09T16:54:01;17.30;99.90
37300;DHT22;23184;51.902;12.836;2022-09-09T16:56:29;17.30;99.90
37300;DHT22;23184;51.902;12.836;2022-09-09T16:58:59;17.30;99.90
37300;DHT22;23184;51.902;12.836;2022-09-09T17:01:27;17.20;99.90
37300;DHT22;23184;51.902;12.836;2022-09-09T17:03:54;17.20;99.90
37300;DHT22;23184;51.902;12.836;2022-09-09T17:06:21;17.30;99.90
37300;DHT22;23184;51.902;12.836;2022-09-09T17:08:46;17.30;99.90
37300;DHT22;23184;51.902;12.836;2022-09-09T17:11:18;17.30;99.90
37300;DHT22;23184;51.902;12.836;2022-09-09T17:13:46;17.40;99.90
37300;DHT22;23184;51.902;12.836;2022-09-09T17:16:14;17.30;99.90
37300;DHT22;23184;51.902;12.836;2022-09-09T17:18:40;17.30;99.90
37300;DHT22;23184;51.902;12.836;2022-09-09T17:21:08;17.20;99.90
37300;DHT22;23184;51.902;12.836;2022-09-09T17:23:35;17.10;99.90
37300;DHT22;23184;51.902;12.836;2022-09-09T17:26:08;17.10;99.90
37300;DHT22;23184;51.902;12.836;2022-09-09T17:28:34;17.00;99.90
37300;DHT22;23184;51.902;12.836;2022-09-09T17:31:01;17.00;99.90
37300;DHT22;23184;51.902;12.836;2022-09-09T17:33:28;16.90;99.90
37300;DHT22;23184;51.902;12.836;2022-09-09T17:35:59;16.80;99.90